LFKF Airport Information

Runway Information
Runway 05 Length 8136 ft width 148 ft
Elevation 40 ft Threshold 0 ft Heading 48
Runway 23 Length 8136 ft Width 148 ft
Elevation 86 ft Threshold 0 ft Heading 228
Airport Frequencies
Type ATIS Name FIGARI INF Frequency 118.725 MHZ
Type GND Name FIGARI GND Frequency 121.8 MHZ
Type TWR Name FIGARI TWR Frequency 120.3 MHZ
Airport Navaids
Type VOR-DME Name Figari Frequency 116700 KHZ
Airport Weather Information & NOTAM
ADDS - METARS form results

(0909 UTC 20 May 2019)
Data provider http://aviationweather.gov/metar/data/
 
METAR text: LFKF 200900Z AUTO 21013KT 180V240 9999 BKN013 BKN019 BKN025 17/13 Q1008 TEMPO SHRA SCT020CB BKN033
Conditions at: LFKF (FIGARI (AUT) , FR) observed 0900 UTC 20 May 2019
Temperature: 17.0°C (63°F)
Dewpoint: 13.0°C (55°F) [RH = 77%]
Pressure (altimeter): 29.76 inches Hg (1008.0 mb)
Winds: from the SSW (210 degrees) at 15 MPH (13 knots; 6.7 m/s)
Visibility: 6 or more miles (10+ km)
Ceiling: 1300 feet AGL
Clouds: broken clouds at 1300 feet AGL
broken clouds at 1900 feet AGL
broken clouds at 2500 feet AGL
Weather: no significant weather observed at this time

METAR text: LFKF 200830Z AUTO 22012KT 190V250 9999 SCT015 BKN021 BKN027 16/13 Q1008 TEMPO 26020G30KT SHRA SCT020CB BKN033
Conditions at: LFKF (FIGARI (AUT) , FR) observed 0830 UTC 20 May 2019
Temperature: 16.0°C (61°F)
Dewpoint: 13.0°C (55°F) [RH = 82%]
Pressure (altimeter): 29.76 inches Hg (1008.0 mb)
Winds: from the SW (220 degrees) at 14 MPH (12 knots; 6.2 m/s)
Visibility: 6 or more miles (10+ km)
Ceiling: 2100 feet AGL
Clouds: scattered clouds at 1500 feet AGL
broken clouds at 2100 feet AGL
broken clouds at 2700 feet AGL
Weather: no significant weather observed at this time

Forecast for: LFKF (FIGARI (AUT) , FR)
Text: TAF LFKF 200800Z 2009/2109 25015KT 9999 SCT020 BKN040
Forecast period: 0900 UTC 20 May 2019 to 0900 UTC 21 May 2019
Forecast type: FROM: standard forecast or significant change
Winds: from the WSW (250 degrees) at 17 MPH (15 knots; 7.7 m/s)
Visibility: 6 or more miles 10+ km)
Ceiling: 4000 feet AGL
Clouds: scattered clouds at 2000 feet AGL
broken clouds at 4000 feet AGL
Weather: no significant weather forecast for this period
Text: TEMPO 2011/2017 26018G30KT
Forecast period: 1100 to 1700 UTC 20 May 2019
Forecast type: TEMPORARY: The following changes expected for less than half the time period
Winds: from the W (260 degrees) at 21 MPH (18 knots; 9.3 m/s)
gusting to 34 MPH (30 knots; 15.4 m/s)
Visibility: missing
Ceiling: unknown
Clouds: missing
Weather: no significant weather forecast for this period
Text: TEMPO 2009/2011 SHRA SCT020CB BKN033
Forecast period: 0900 to 1100 UTC 20 May 2019
Forecast type: TEMPORARY: The following changes expected for less than half the time period
Visibility: missing
Ceiling: 3300 feet AGL
Clouds: scattered clouds at 2000 feet AGL
broken clouds at 3300 feet AGL
Weather: SHRA  (rain showers)